Terminal Aerodrome Forecast
Issued by NWS New Orleans/Baton Rouge, LA

Home | Current Version | Previous Version | Text Only | Print | Product List | Glossary On
Versions: 1 2 3 4 5 6 7 8 9 10 11 12 13 14 15 16 17 18 19 20 21 22 23 24 25 26 27 28 29 30 31 32 33 34
000
FTUS44 KLIX 220600 AAA
TAFNEW
TAF AMD
KNEW 220639Z 2207/2306 09006KT 1SM BR OVC002
     FM221500 15007KT P6SM BKN018
     FM221800 21015KT P6SM BKN025
     FM222300 21014KT P6SM BKN020=

USA.gov is the U.S. government's official web portal to all federal, state and local government web resources and services.